sensor_id;sensor_type;location;lat;lon;timestamp;P1;durP1;ratioP1;P2;durP2;ratioP2
47713;SDS011;33475;46.614;13.888;2023-08-31T00:00:09;6.55;;;1.27;;
47713;SDS011;33475;46.614;13.888;2023-08-31T00:02:35;1.30;;;1.20;;
47713;SDS011;33475;46.614;13.888;2023-08-31T00:05:02;2.17;;;1.38;;
47713;SDS011;33475;46.614;13.888;2023-08-31T00:07:29;1.67;;;1.17;;
47713;SDS011;33475;46.614;13.888;2023-08-31T00:09:55;3.88;;;2.35;;
47713;SDS011;33475;46.614;13.888;2023-08-31T00:12:21;5.85;;;1.67;;
47713;SDS011;33475;46.614;13.888;2023-08-31T00:14:51;2.75;;;1.60;;
47713;SDS011;33475;46.614;13.888;2023-08-31T00:17:18;2.58;;;1.58;;
47713;SDS011;33475;46.614;13.888;2023-08-31T00:19:44;2.92;;;1.50;;
47713;SDS011;33475;46.614;13.888;2023-08-31T00:22:10;4.45;;;1.42;;
47713;SDS011;33475;46.614;13.888;2023-08-31T00:24:36;3.13;;;1.45;;
47713;SDS011;33475;46.614;13.888;2023-08-31T00:27:03;6.38;;;0.70;;
47713;SDS011;33475;46.614;13.888;2023-08-31T00:29:29;0.57;;;0.50;;
47713;SDS011;33475;46.614;13.888;2023-08-31T00:31:58;23.58;;;1.20;;
47713;SDS011;33475;46.614;13.888;2023-08-31T00:34:24;3.10;;;0.63;;
47713;SDS011;33475;46.614;13.888;2023-08-31T00:36:50;0.85;;;0.63;;
47713;SDS011;33475;46.614;13.888;2023-08-31T00:39:16;2.13;;;0.80;;
47713;SDS011;33475;46.614;13.888;2023-08-31T00:41:46;0.57;;;0.57;;
47713;SDS011;33475;46.614;13.888;2023-08-31T00:44:13;1.13;;;0.50;;
47713;SDS011;33475;46.614;13.888;2023-08-31T00:46:40;1.02;;;0.70;;
47713;SDS011;33475;46.614;13.888;2023-08-31T00:49:07;0.85;;;0.68;;
47713;SDS011;33475;46.614;13.888;2023-08-31T00:51:34;2.13;;;0.80;;
47713;SDS011;33475;46.614;13.888;2023-08-31T00:54:00;1.55;;;0.80;;
47713;SDS011;33475;46.614;13.888;2023-08-31T00:56:26;1.45;;;1.20;;
47713;SDS011;33475;46.614;13.888;2023-08-31T00:58:52;0.70;;;0.70;;
47713;SDS011;33475;46.614;13.888;2023-08-31T01:01:38;1.17;;;0.90;;
47713;SDS011;33475;46.614;13.888;2023-08-31T01:06:56;1.40;;;1.10;;
47713;SDS011;33475;46.614;13.888;2023-08-31T01:09:41;4.82;;;1.20;;
47713;SDS011;33475;46.614;13.888;2023-08-31T01:15:10;4.55;;;1.77;;
47713;SDS011;33475;46.614;13.888;2023-08-31T01:17:39;4.38;;;1.45;;
47713;SDS011;33475;46.614;13.888;2023-08-31T01:20:07;4.35;;;1.70;;
47713;SDS011;33475;46.614;13.888;2023-08-31T01:22:38;1.83;;;1.67;;
47713;SDS011;33475;46.614;13.888;2023-08-31T01:25:05;1.95;;;1.80;;
47713;SDS011;33475;46.614;13.888;2023-08-31T01:27:35;2.35;;;2.22;;
47713;SDS011;33475;46.614;13.888;2023-08-31T01:30:01;2.35;;;2.13;;
47713;SDS011;33475;46.614;13.888;2023-08-31T01:32:28;2.40;;;2.10;;
47713;SDS011;33475;46.614;13.888;2023-08-31T01:34:54;3.15;;;2.25;;
47713;SDS011;33475;46.614;13.888;2023-08-31T01:37:27;2.58;;;2.20;;
47713;SDS011;33475;46.614;13.888;2023-08-31T01:40:09;3.83;;;1.80;;
47713;SDS011;33475;46.614;13.888;2023-08-31T01:42:39;1.98;;;1.88;;
47713;SDS011;33475;46.614;13.888;2023-08-31T01:45:06;4.43;;;2.00;;
47713;SDS011;33475;46.614;13.888;2023-08-31T01:47:33;3.75;;;2.22;;
47713;SDS011;33475;46.614;13.888;2023-08-31T01:50:00;2.67;;;2.13;;
47713;SDS011;33475;46.614;13.888;2023-08-31T01:52:27;5.63;;;1.85;;
47713;SDS011;33475;46.614;13.888;2023-08-31T01:54:53;2.58;;;1.80;;
47713;SDS011;33475;46.614;13.888;2023-08-31T01:57:19;2.28;;;1.73;;
47713;SDS011;33475;46.614;13.888;2023-08-31T01:59:45;3.60;;;1.70;;
47713;SDS011;33475;46.614;13.888;2023-08-31T02:02:11;5.45;;;1.70;;
47713;SDS011;33475;46.614;13.888;2023-08-31T02:04:37;2.30;;;2.10;;
47713;SDS011;33475;46.614;13.888;2023-08-31T02:07:03;2.58;;;1.75;;
47713;SDS011;33475;46.614;13.888;2023-08-31T02:09:29;3.78;;;1.80;;
47713;SDS011;33475;46.614;13.888;2023-08-31T02:11:56;2.63;;;1.77;;
47713;SDS011;33475;46.614;13.888;2023-08-31T02:14:22;7.75;;;1.90;;
47713;SDS011;33475;46.614;13.888;2023-08-31T02:16:48;1.73;;;1.63;;
47713;SDS011;33475;46.614;13.888;2023-08-31T02:19:14;1.73;;;1.52;;
47713;SDS011;33475;46.614;13.888;2023-08-31T02:21:41;3.15;;;1.83;;
47713;SDS011;33475;46.614;13.888;2023-08-31T02:24:07;1.70;;;1.60;;
47713;SDS011;33475;46.614;13.888;2023-08-31T02:26:35;2.35;;;1.65;;
47713;SDS011;33475;46.614;13.888;2023-08-31T02:29:02;1.90;;;1.80;;
47713;SDS011;33475;46.614;13.888;2023-08-31T02:31:29;3.15;;;1.67;;
47713;SDS011;33475;46.614;13.888;2023-08-31T02:33:55;1.70;;;1.60;;
47713;SDS011;33475;46.614;13.888;2023-08-31T02:36:21;4.78;;;1.50;;
47713;SDS011;33475;46.614;13.888;2023-08-31T02:38:47;1.67;;;1.40;;
47713;SDS011;33475;46.614;13.888;2023-08-31T02:41:15;3.28;;;1.65;;
47713;SDS011;33475;46.614;13.888;2023-08-31T02:43:44;3.47;;;1.50;;
47713;SDS011;33475;46.614;13.888;2023-08-31T02:46:11;2.03;;;1.60;;
47713;SDS011;33475;46.614;13.888;2023-08-31T02:48:37;2.33;;;1.15;;
47713;SDS011;33475;46.614;13.888;2023-08-31T02:51:04;1.70;;;1.60;;
47713;SDS011;33475;46.614;13.888;2023-08-31T02:53:30;2.00;;;1.40;;
47713;SDS011;33475;46.614;13.888;2023-08-31T02:55:56;1.73;;;1.55;;
47713;SDS011;33475;46.614;13.888;2023-08-31T02:58:22;1.70;;;1.60;;
47713;SDS011;33475;46.614;13.888;2023-08-31T03:00:48;2.85;;;1.55;;
47713;SDS011;33475;46.614;13.888;2023-08-31T03:03:15;1.88;;;1.77;;
47713;SDS011;33475;46.614;13.888;2023-08-31T03:05:41;2.08;;;1.83;;
47713;SDS011;33475;46.614;13.888;2023-08-31T03:08:07;3.85;;;1.70;;
47713;SDS011;33475;46.614;13.888;2023-08-31T03:10:34;3.30;;;1.70;;
47713;SDS011;33475;46.614;13.888;2023-08-31T03:13:01;3.30;;;1.65;;
47713;SDS011;33475;46.614;13.888;2023-08-31T03:15:27;0.90;;;0.80;;
47713;SDS011;33475;46.614;13.888;2023-08-31T03:17:53;4.28;;;0.75;;
47713;SDS011;33475;46.614;13.888;2023-08-31T03:20:19;0.88;;;0.57;;
47713;SDS011;33475;46.614;13.888;2023-08-31T03:22:46;3.92;;;1.10;;
47713;SDS011;33475;46.614;13.888;2023-08-31T03:25:12;1.25;;;0.98;;
47713;SDS011;33475;46.614;13.888;2023-08-31T03:27:38;0.73;;;0.70;;
47713;SDS011;33475;46.614;13.888;2023-08-31T03:30:04;1.17;;;0.70;;
47713;SDS011;33475;46.614;13.888;2023-08-31T03:32:31;2.20;;;0.73;;
47713;SDS011;33475;46.614;13.888;2023-08-31T03:34:57;1.83;;;0.98;;
47713;SDS011;33475;46.614;13.888;2023-08-31T03:37:23;0.70;;;0.70;;
47713;SDS011;33475;46.614;13.888;2023-08-31T03:39:49;1.58;;;1.00;;
47713;SDS011;33475;46.614;13.888;2023-08-31T03:42:15;1.38;;;0.80;;
47713;SDS011;33475;46.614;13.888;2023-08-31T03:44:41;0.60;;;0.60;;
47713;SDS011;33475;46.614;13.888;2023-08-31T03:47:08;1.20;;;0.93;;
47713;SDS011;33475;46.614;13.888;2023-08-31T03:49:34;4.43;;;0.82;;
47713;SDS011;33475;46.614;13.888;2023-08-31T03:52:00;1.63;;;0.80;;
47713;SDS011;33475;46.614;13.888;2023-08-31T03:54:26;1.55;;;0.60;;
47713;SDS011;33475;46.614;13.888;2023-08-31T03:56:52;5.55;;;0.90;;
47713;SDS011;33475;46.614;13.888;2023-08-31T03:59:18;1.05;;;0.95;;
47713;SDS011;33475;46.614;13.888;2023-08-31T04:01:44;1.33;;;1.15;;
47713;SDS011;33475;46.614;13.888;2023-08-31T04:04:11;0.95;;;0.95;;
47713;SDS011;33475;46.614;13.888;2023-08-31T04:06:37;1.05;;;1.00;;
47713;SDS011;33475;46.614;13.888;2023-08-31T04:09:04;1.30;;;1.20;;
47713;SDS011;33475;46.614;13.888;2023-08-31T04:11:30;3.38;;;1.67;;
47713;SDS011;33475;46.614;13.888;2023-08-31T04:13:56;2.85;;;1.52;;
47713;SDS011;33475;46.614;13.888;2023-08-31T04:16:22;2.08;;;1.88;;
47713;SDS011;33475;46.614;13.888;2023-08-31T04:18:48;3.92;;;2.08;;
47713;SDS011;33475;46.614;13.888;2023-08-31T04:21:17;2.00;;;1.90;;
47713;SDS011;33475;46.614;13.888;2023-08-31T04:23:46;5.78;;;2.10;;
47713;SDS011;33475;46.614;13.888;2023-08-31T04:26:12;2.33;;;2.17;;
47713;SDS011;33475;46.614;13.888;2023-08-31T04:28:40;1.95;;;1.85;;
47713;SDS011;33475;46.614;13.888;2023-08-31T04:31:07;1.80;;;1.70;;
47713;SDS011;33475;46.614;13.888;2023-08-31T04:33:34;2.28;;;2.08;;
47713;SDS011;33475;46.614;13.888;2023-08-31T04:36:00;1.63;;;1.52;;
47713;SDS011;33475;46.614;13.888;2023-08-31T04:38:28;1.85;;;1.75;;
47713;SDS011;33475;46.614;13.888;2023-08-31T04:40:57;2.03;;;1.55;;
47713;SDS011;33475;46.614;13.888;2023-08-31T04:43:24;1.58;;;1.48;;
47713;SDS011;33475;46.614;13.888;2023-08-31T04:45:53;1.55;;;1.45;;
47713;SDS011;33475;46.614;13.888;2023-08-31T04:48:20;5.18;;;1.80;;
47713;SDS011;33475;46.614;13.888;2023-08-31T04:50:46;3.90;;;1.60;;
47713;SDS011;33475;46.614;13.888;2023-08-31T04:53:12;2.10;;;1.85;;
47713;SDS011;33475;46.614;13.888;2023-08-31T04:55:38;2.00;;;1.90;;
47713;SDS011;33475;46.614;13.888;2023-08-31T04:58:05;2.00;;;1.90;;
47713;SDS011;33475;46.614;13.888;2023-08-31T05:00:31;2.60;;;2.40;;
47713;SDS011;33475;46.614;13.888;2023-08-31T05:02:57;3.90;;;2.42;;
47713;SDS011;33475;46.614;13.888;2023-08-31T05:05:23;2.03;;;1.80;;
47713;SDS011;33475;46.614;13.888;2023-08-31T05:07:49;1.70;;;1.60;;
47713;SDS011;33475;46.614;13.888;2023-08-31T05:10:15;1.70;;;1.60;;
47713;SDS011;33475;46.614;13.888;2023-08-31T05:12:42;1.67;;;1.52;;
47713;SDS011;33475;46.614;13.888;2023-08-31T05:15:08;1.88;;;1.50;;
47713;SDS011;33475;46.614;13.888;2023-08-31T05:17:34;1.25;;;1.02;;
47713;SDS011;33475;46.614;13.888;2023-08-31T05:20:01;1.42;;;0.85;;
47713;SDS011;33475;46.614;13.888;2023-08-31T05:22:29;1.25;;;0.90;;
47713;SDS011;33475;46.614;13.888;2023-08-31T05:24:55;4.97;;;1.92;;
47713;SDS011;33475;46.614;13.888;2023-08-31T05:27:21;1.42;;;1.10;;
47713;SDS011;33475;46.614;13.888;2023-08-31T05:29:47;4.55;;;0.98;;
47713;SDS011;33475;46.614;13.888;2023-08-31T05:32:14;1.00;;;1.00;;
47713;SDS011;33475;46.614;13.888;2023-08-31T05:34:40;1.10;;;0.90;;
47713;SDS011;33475;46.614;13.888;2023-08-31T05:37:06;3.50;;;0.93;;
47713;SDS011;33475;46.614;13.888;2023-08-31T05:39:32;0.82;;;0.82;;
47713;SDS011;33475;46.614;13.888;2023-08-31T05:41:59;1.33;;;1.27;;
47713;SDS011;33475;46.614;13.888;2023-08-31T05:44:25;0.90;;;0.90;;
47713;SDS011;33475;46.614;13.888;2023-08-31T05:46:51;1.27;;;1.08;;
47713;SDS011;33475;46.614;13.888;2023-08-31T05:49:17;1.52;;;1.10;;
47713;SDS011;33475;46.614;13.888;2023-08-31T05:51:44;1.30;;;1.20;;
47713;SDS011;33475;46.614;13.888;2023-08-31T05:54:10;3.78;;;1.20;;
47713;SDS011;33475;46.614;13.888;2023-08-31T05:56:38;1.23;;;1.00;;
47713;SDS011;33475;46.614;13.888;2023-08-31T05:59:06;13.40;;;1.60;;
47713;SDS011;33475;46.614;13.888;2023-08-31T06:01:33;1.50;;;1.20;;
47713;SDS011;33475;46.614;13.888;2023-08-31T06:03:59;1.58;;;1.25;;
47713;SDS011;33475;46.614;13.888;2023-08-31T06:06:25;3.13;;;1.25;;
47713;SDS011;33475;46.614;13.888;2023-08-31T06:08:52;1.08;;;1.00;;
47713;SDS011;33475;46.614;13.888;2023-08-31T06:11:19;1.00;;;0.80;;
47713;SDS011;33475;46.614;13.888;2023-08-31T06:13:46;0.80;;;0.80;;
47713;SDS011;33475;46.614;13.888;2023-08-31T06:16:12;1.23;;;1.10;;
47713;SDS011;33475;46.614;13.888;2023-08-31T06:18:39;3.25;;;1.00;;
47713;SDS011;33475;46.614;13.888;2023-08-31T06:21:05;0.88;;;0.88;;
47713;SDS011;33475;46.614;13.888;2023-08-31T06:23:31;1.73;;;1.23;;
47713;SDS011;33475;46.614;13.888;2023-08-31T06:25:57;1.00;;;0.80;;
47713;SDS011;33475;46.614;13.888;2023-08-31T06:28:23;1.10;;;0.90;;
47713;SDS011;33475;46.614;13.888;2023-08-31T06:30:50;1.05;;;0.82;;
47713;SDS011;33475;46.614;13.888;2023-08-31T06:33:16;0.82;;;0.82;;
47713;SDS011;33475;46.614;13.888;2023-08-31T06:35:46;6.47;;;0.90;;
47713;SDS011;33475;46.614;13.888;2023-08-31T06:38:17;1.10;;;0.98;;
47713;SDS011;33475;46.614;13.888;2023-08-31T06:40:44;3.20;;;0.95;;
47713;SDS011;33475;46.614;13.888;2023-08-31T06:43:10;2.40;;;1.40;;
47713;SDS011;33475;46.614;13.888;2023-08-31T06:45:36;2.15;;;1.50;;
47713;SDS011;33475;46.614;13.888;2023-08-31T06:48:02;3.10;;;1.40;;
47713;SDS011;33475;46.614;13.888;2023-08-31T06:50:29;3.65;;;1.33;;
47713;SDS011;33475;46.614;13.888;2023-08-31T06:52:56;5.20;;;1.45;;
47713;SDS011;33475;46.614;13.888;2023-08-31T06:55:22;3.72;;;1.58;;
47713;SDS011;33475;46.614;13.888;2023-08-31T06:57:48;1.20;;;1.10;;
47713;SDS011;33475;46.614;13.888;2023-08-31T07:00:15;2.63;;;1.38;;
47713;SDS011;33475;46.614;13.888;2023-08-31T07:02:41;0.80;;;0.80;;
47713;SDS011;33475;46.614;13.888;2023-08-31T07:05:07;3.40;;;0.95;;
47713;SDS011;33475;46.614;13.888;2023-08-31T07:07:34;2.20;;;1.98;;
47713;SDS011;33475;46.614;13.888;2023-08-31T07:10:00;2.55;;;1.05;;
47713;SDS011;33475;46.614;13.888;2023-08-31T07:12:26;1.15;;;1.05;;
47713;SDS011;33475;46.614;13.888;2023-08-31T07:14:53;1.27;;;0.98;;
47713;SDS011;33475;46.614;13.888;2023-08-31T07:17:19;1.70;;;0.95;;
47713;SDS011;33475;46.614;13.888;2023-08-31T07:19:45;1.65;;;1.55;;
47713;SDS011;33475;46.614;13.888;2023-08-31T07:22:11;1.85;;;1.10;;
47713;SDS011;33475;46.614;13.888;2023-08-31T07:24:37;1.98;;;1.77;;
47713;SDS011;33475;46.614;13.888;2023-08-31T07:27:04;3.22;;;0.90;;
47713;SDS011;33475;46.614;13.888;2023-08-31T07:29:30;1.20;;;0.90;;
47713;SDS011;33475;46.614;13.888;2023-08-31T07:31:57;1.15;;;1.05;;
47713;SDS011;33475;46.614;13.888;2023-08-31T07:34:23;1.88;;;1.35;;
47713;SDS011;33475;46.614;13.888;2023-08-31T07:36:50;3.65;;;1.77;;
47713;SDS011;33475;46.614;13.888;2023-08-31T07:39:16;1.77;;;1.48;;
47713;SDS011;33475;46.614;13.888;2023-08-31T07:41:43;1.60;;;1.48;;
47713;SDS011;33475;46.614;13.888;2023-08-31T07:44:09;1.77;;;1.67;;
47713;SDS011;33475;46.614;13.888;2023-08-31T07:46:35;1.60;;;1.30;;
47713;SDS011;33475;46.614;13.888;2023-08-31T07:49:01;2.85;;;1.27;;
47713;SDS011;33475;46.614;13.888;2023-08-31T07:51:29;1.30;;;1.20;;
47713;SDS011;33475;46.614;13.888;2023-08-31T07:53:56;2.20;;;1.35;;
47713;SDS011;33475;46.614;13.888;2023-08-31T07:56:22;1.95;;;1.45;;
47713;SDS011;33475;46.614;13.888;2023-08-31T07:58:49;1.50;;;1.20;;
47713;SDS011;33475;46.614;13.888;2023-08-31T08:01:15;1.48;;;1.35;;
47713;SDS011;33475;46.614;13.888;2023-08-31T08:03:42;1.42;;;1.10;;
47713;SDS011;33475;46.614;13.888;2023-08-31T08:06:08;1.10;;;1.00;;
47713;SDS011;33475;46.614;13.888;2023-08-31T08:08:35;1.15;;;1.05;;
47713;SDS011;33475;46.614;13.888;2023-08-31T08:11:01;0.98;;;0.93;;
47713;SDS011;33475;46.614;13.888;2023-08-31T08:13:28;2.83;;;1.00;;
47713;SDS011;33475;46.614;13.888;2023-08-31T08:15:54;0.98;;;0.70;;
47713;SDS011;33475;46.614;13.888;2023-08-31T08:18:20;1.60;;;1.30;;
47713;SDS011;33475;46.614;13.888;2023-08-31T08:20:52;1.65;;;0.80;;
47713;SDS011;33475;46.614;13.888;2023-08-31T08:23:19;0.70;;;0.50;;
47713;SDS011;33475;46.614;13.888;2023-08-31T08:25:47;1.83;;;0.65;;
47713;SDS011;33475;46.614;13.888;2023-08-31T08:28:13;0.50;;;0.50;;
47713;SDS011;33475;46.614;13.888;2023-08-31T08:30:39;1.33;;;0.80;;
47713;SDS011;33475;46.614;13.888;2023-08-31T08:33:05;1.23;;;0.80;;
47713;SDS011;33475;46.614;13.888;2023-08-31T08:35:31;1.42;;;0.90;;
47713;SDS011;33475;46.614;13.888;2023-08-31T08:37:58;1.15;;;0.80;;
47713;SDS011;33475;46.614;13.888;2023-08-31T08:40:24;1.10;;;0.70;;
47713;SDS011;33475;46.614;13.888;2023-08-31T08:42:51;1.00;;;0.80;;
47713;SDS011;33475;46.614;13.888;2023-08-31T08:45:19;1.30;;;0.85;;
47713;SDS011;33475;46.614;13.888;2023-08-31T08:47:46;0.80;;;0.60;;
47713;SDS011;33475;46.614;13.888;2023-08-31T08:50:12;1.02;;;0.63;;
47713;SDS011;33475;46.614;13.888;2023-08-31T08:52:39;2.80;;;0.55;;
47713;SDS011;33475;46.614;13.888;2023-08-31T08:55:07;0.75;;;0.75;;
47713;SDS011;33475;46.614;13.888;2023-08-31T08:57:34;2.80;;;0.80;;
47713;SDS011;33475;46.614;13.888;2023-08-31T09:00:00;0.80;;;0.70;;
47713;SDS011;33475;46.614;13.888;2023-08-31T09:02:28;0.82;;;0.63;;
47713;SDS011;33475;46.614;13.888;2023-08-31T09:04:54;0.85;;;0.50;;
47713;SDS011;33475;46.614;13.888;2023-08-31T09:07:21;0.70;;;0.70;;
47713;SDS011;33475;46.614;13.888;2023-08-31T09:09:48;1.02;;;0.60;;
47713;SDS011;33475;46.614;13.888;2023-08-31T09:12:17;3.60;;;0.70;;
47713;SDS011;33475;46.614;13.888;2023-08-31T09:14:56;1.15;;;0.68;;
47713;SDS011;33475;46.614;13.888;2023-08-31T09:17:23;3.42;;;0.47;;
47713;SDS011;33475;46.614;13.888;2023-08-31T09:20:01;0.82;;;0.50;;
47713;SDS011;33475;46.614;13.888;2023-08-31T09:22:30;3.72;;;0.55;;
47713;SDS011;33475;46.614;13.888;2023-08-31T09:24:56;1.15;;;0.32;;
47713;SDS011;33475;46.614;13.888;2023-08-31T09:27:22;1.55;;;0.40;;
47713;SDS011;33475;46.614;13.888;2023-08-31T09:29:49;0.50;;;0.38;;
47713;SDS011;33475;46.614;13.888;2023-08-31T09:32:16;1.75;;;1.08;;
47713;SDS011;33475;46.614;13.888;2023-08-31T09:34:42;0.82;;;0.60;;
47713;SDS011;33475;46.614;13.888;2023-08-31T09:37:09;2.15;;;0.80;;
47713;SDS011;33475;46.614;13.888;2023-08-31T09:39:35;2.65;;;0.50;;
47713;SDS011;33475;46.614;13.888;2023-08-31T09:42:02;1.63;;;0.55;;
47713;SDS011;33475;46.614;13.888;2023-08-31T09:44:29;1.23;;;0.90;;
47713;SDS011;33475;46.614;13.888;2023-08-31T09:46:55;0.55;;;0.40;;
47713;SDS011;33475;46.614;13.888;2023-08-31T09:49:21;0.52;;;0.52;;
47713;SDS011;33475;46.614;13.888;2023-08-31T09:51:50;2.47;;;0.90;;
47713;SDS011;33475;46.614;13.888;2023-08-31T09:54:17;1.67;;;0.70;;
47713;SDS011;33475;46.614;13.888;2023-08-31T09:56:44;1.85;;;0.50;;
47713;SDS011;33475;46.614;13.888;2023-08-31T09:59:11;0.85;;;0.40;;
47713;SDS011;33475;46.614;13.888;2023-08-31T10:01:37;0.85;;;0.80;;
47713;SDS011;33475;46.614;13.888;2023-08-31T10:04:03;0.30;;;0.30;;
47713;SDS011;33475;46.614;13.888;2023-08-31T10:06:31;0.50;;;0.30;;
47713;SDS011;33475;46.614;13.888;2023-08-31T10:08:58;0.40;;;0.40;;
47713;SDS011;33475;46.614;13.888;2023-08-31T10:11:24;1.05;;;0.52;;
47713;SDS011;33475;46.614;13.888;2023-08-31T10:13:51;0.75;;;0.35;;
47713;SDS011;33475;46.614;13.888;2023-08-31T10:16:19;0.57;;;0.30;;
47713;SDS011;33475;46.614;13.888;2023-08-31T10:18:45;0.35;;;0.28;;
47713;SDS011;33475;46.614;13.888;2023-08-31T10:21:11;0.20;;;0.20;;
47713;SDS011;33475;46.614;13.888;2023-08-31T10:23:44;0.38;;;0.30;;
47713;SDS011;33475;46.614;13.888;2023-08-31T10:26:10;0.68;;;0.20;;
47713;SDS011;33475;46.614;13.888;2023-08-31T10:28:40;1.85;;;0.20;;
47713;SDS011;33475;46.614;13.888;2023-08-31T10:31:10;0.30;;;0.25;;
47713;SDS011;33475;46.614;13.888;2023-08-31T10:33:42;0.50;;;0.32;;
47713;SDS011;33475;46.614;13.888;2023-08-31T10:36:09;0.95;;;0.20;;
47713;SDS011;33475;46.614;13.888;2023-08-31T10:38:36;0.57;;;0.38;;
47713;SDS011;33475;46.614;13.888;2023-08-31T10:48:57;0.45;;;0.30;;
47713;SDS011;33475;46.614;13.888;2023-08-31T10:51:32;0.63;;;0.40;;
47713;SDS011;33475;46.614;13.888;2023-08-31T10:54:05;2.35;;;0.47;;
47713;SDS011;33475;46.614;13.888;2023-08-31T10:56:31;0.55;;;0.30;;
47713;SDS011;33475;46.614;13.888;2023-08-31T10:58:58;0.75;;;0.40;;
47713;SDS011;33475;46.614;13.888;2023-08-31T11:04:10;1.30;;;0.30;;
47713;SDS011;33475;46.614;13.888;2023-08-31T11:06:36;0.90;;;0.40;;
47713;SDS011;33475;46.614;13.888;2023-08-31T11:09:02;1.58;;;0.40;;
47713;SDS011;33475;46.614;13.888;2023-08-31T11:11:29;2.50;;;0.60;;
47713;SDS011;33475;46.614;13.888;2023-08-31T11:14:03;0.80;;;0.32;;
47713;SDS011;33475;46.614;13.888;2023-08-31T11:16:30;0.57;;;0.40;;
47713;SDS011;33475;46.614;13.888;2023-08-31T11:18:56;0.50;;;0.40;;
47713;SDS011;33475;46.614;13.888;2023-08-31T11:21:22;1.83;;;0.77;;
47713;SDS011;33475;46.614;13.888;2023-08-31T11:23:49;0.70;;;0.40;;
47713;SDS011;33475;46.614;13.888;2023-08-31T11:26:17;0.60;;;0.60;;
47713;SDS011;33475;46.614;13.888;2023-08-31T11:28:44;0.63;;;0.52;;
47713;SDS011;33475;46.614;13.888;2023-08-31T11:31:11;0.60;;;0.50;;
47713;SDS011;33475;46.614;13.888;2023-08-31T11:33:37;1.92;;;1.27;;
47713;SDS011;33475;46.614;13.888;2023-08-31T11:36:03;0.80;;;0.40;;
47713;SDS011;33475;46.614;13.888;2023-08-31T11:38:30;0.43;;;0.32;;
47713;SDS011;33475;46.614;13.888;2023-08-31T11:40:58;2.42;;;0.45;;
47713;SDS011;33475;46.614;13.888;2023-08-31T11:43:24;0.60;;;0.50;;
47713;SDS011;33475;46.614;13.888;2023-08-31T11:45:51;0.90;;;0.70;;
47713;SDS011;33475;46.614;13.888;2023-08-31T11:48:17;1.58;;;0.30;;
47713;SDS011;33475;46.614;13.888;2023-08-31T11:50:43;1.27;;;0.50;;
47713;SDS011;33475;46.614;13.888;2023-08-31T11:53:10;5.72;;;0.50;;
47713;SDS011;33475;46.614;13.888;2023-08-31T11:55:36;0.20;;;0.20;;
47713;SDS011;33475;46.614;13.888;2023-08-31T11:58:02;1.17;;;0.47;;
47713;SDS011;33475;46.614;13.888;2023-08-31T12:00:29;0.75;;;0.55;;
47713;SDS011;33475;46.614;13.888;2023-08-31T12:02:58;0.50;;;0.50;;
47713;SDS011;33475;46.614;13.888;2023-08-31T12:05:25;0.77;;;0.40;;
47713;SDS011;33475;46.614;13.888;2023-08-31T12:07:53;0.47;;;0.40;;
47713;SDS011;33475;46.614;13.888;2023-08-31T12:10:19;0.38;;;0.35;;
47713;SDS011;33475;46.614;13.888;2023-08-31T12:12:46;1.40;;;0.43;;
47713;SDS011;33475;46.614;13.888;2023-08-31T12:15:12;0.47;;;0.47;;
47713;SDS011;33475;46.614;13.888;2023-08-31T12:17:38;1.65;;;0.52;;
47713;SDS011;33475;46.614;13.888;2023-08-31T12:20:05;2.55;;;0.45;;
47713;SDS011;33475;46.614;13.888;2023-08-31T12:22:31;0.40;;;0.40;;
47713;SDS011;33475;46.614;13.888;2023-08-31T12:24:58;1.35;;;0.50;;
47713;SDS011;33475;46.614;13.888;2023-08-31T12:27:24;2.65;;;0.50;;
47713;SDS011;33475;46.614;13.888;2023-08-31T12:29:51;0.52;;;0.38;;
47713;SDS011;33475;46.614;13.888;2023-08-31T12:32:17;0.47;;;0.43;;
47713;SDS011;33475;46.614;13.888;2023-08-31T12:34:43;0.70;;;0.47;;
47713;SDS011;33475;46.614;13.888;2023-08-31T12:37:09;0.45;;;0.45;;
47713;SDS011;33475;46.614;13.888;2023-08-31T12:39:36;0.45;;;0.40;;
47713;SDS011;33475;46.614;13.888;2023-08-31T12:42:03;2.08;;;0.55;;
47713;SDS011;33475;46.614;13.888;2023-08-31T12:44:29;1.00;;;0.45;;
47713;SDS011;33475;46.614;13.888;2023-08-31T12:46:56;1.95;;;0.50;;
47713;SDS011;33475;46.614;13.888;2023-08-31T12:49:22;1.42;;;0.50;;
47713;SDS011;33475;46.614;13.888;2023-08-31T12:51:48;0.50;;;0.40;;
47713;SDS011;33475;46.614;13.888;2023-08-31T12:54:18;0.50;;;0.50;;
47713;SDS011;33475;46.614;13.888;2023-08-31T12:56:45;1.23;;;0.50;;
47713;SDS011;33475;46.614;13.888;2023-08-31T12:59:11;0.70;;;0.50;;
47713;SDS011;33475;46.614;13.888;2023-08-31T13:01:37;0.50;;;0.50;;
47713;SDS011;33475;46.614;13.888;2023-08-31T13:04:03;0.50;;;0.40;;
47713;SDS011;33475;46.614;13.888;2023-08-31T13:06:30;0.80;;;0.50;;
47713;SDS011;33475;46.614;13.888;2023-08-31T13:08:56;1.15;;;0.60;;
47713;SDS011;33475;46.614;13.888;2023-08-31T13:11:22;0.50;;;0.50;;
47713;SDS011;33475;46.614;13.888;2023-08-31T13:13:49;1.13;;;0.50;;
47713;SDS011;33475;46.614;13.888;2023-08-31T13:16:18;0.50;;;0.50;;
47713;SDS011;33475;46.614;13.888;2023-08-31T13:18:47;1.23;;;0.50;;
47713;SDS011;33475;46.614;13.888;2023-08-31T13:21:13;1.85;;;0.50;;
47713;SDS011;33475;46.614;13.888;2023-08-31T13:23:39;1.48;;;0.50;;
47713;SDS011;33475;46.614;13.888;2023-08-31T13:26:08;2.88;;;0.63;;
47713;SDS011;33475;46.614;13.888;2023-08-31T13:28:35;0.43;;;0.43;;
47713;SDS011;33475;46.614;13.888;2023-08-31T13:31:01;0.82;;;0.50;;
47713;SDS011;33475;46.614;13.888;2023-08-31T13:33:28;0.85;;;0.40;;
47713;SDS011;33475;46.614;13.888;2023-08-31T13:35:56;0.50;;;0.43;;
47713;SDS011;33475;46.614;13.888;2023-08-31T13:38:23;0.95;;;0.38;;
47713;SDS011;33475;46.614;13.888;2023-08-31T13:40:53;0.95;;;0.30;;
47713;SDS011;33475;46.614;13.888;2023-08-31T13:43:21;0.50;;;0.30;;
47713;SDS011;33475;46.614;13.888;2023-08-31T13:45:47;0.50;;;0.40;;
47713;SDS011;33475;46.614;13.888;2023-08-31T13:48:14;0.50;;;0.30;;
47713;SDS011;33475;46.614;13.888;2023-08-31T13:50:40;1.20;;;0.30;;
47713;SDS011;33475;46.614;13.888;2023-08-31T13:53:06;0.52;;;0.40;;
47713;SDS011;33475;46.614;13.888;2023-08-31T13:55:32;0.50;;;0.22;;
47713;SDS011;33475;46.614;13.888;2023-08-31T13:58:06;0.13;;;0.10;;
47713;SDS011;33475;46.614;13.888;2023-08-31T14:00:33;0.03;;;0.03;;
47713;SDS011;33475;46.614;13.888;2023-08-31T14:03:00;0.25;;;0.10;;
47713;SDS011;33475;46.614;13.888;2023-08-31T14:05:29;0.20;;;0.20;;
47713;SDS011;33475;46.614;13.888;2023-08-31T14:07:55;0.25;;;0.17;;
47713;SDS011;33475;46.614;13.888;2023-08-31T14:10:23;1.38;;;0.28;;
47713;SDS011;33475;46.614;13.888;2023-08-31T14:12:50;0.73;;;0.28;;
47713;SDS011;33475;46.614;13.888;2023-08-31T14:15:16;0.20;;;0.20;;
47713;SDS011;33475;46.614;13.888;2023-08-31T14:17:42;0.30;;;0.30;;
47713;SDS011;33475;46.614;13.888;2023-08-31T14:20:08;0.63;;;0.38;;
47713;SDS011;33475;46.614;13.888;2023-08-31T14:22:36;0.70;;;0.35;;
47713;SDS011;33475;46.614;13.888;2023-08-31T14:25:07;0.25;;;0.25;;
47713;SDS011;33475;46.614;13.888;2023-08-31T14:27:34;1.38;;;0.30;;
47713;SDS011;33475;46.614;13.888;2023-08-31T14:30:00;0.55;;;0.55;;
47713;SDS011;33475;46.614;13.888;2023-08-31T14:32:26;0.30;;;0.28;;
47713;SDS011;33475;46.614;13.888;2023-08-31T14:34:53;0.98;;;0.47;;
47713;SDS011;33475;46.614;13.888;2023-08-31T14:37:20;0.57;;;0.32;;
47713;SDS011;33475;46.614;13.888;2023-08-31T14:39:46;0.30;;;0.30;;
47713;SDS011;33475;46.614;13.888;2023-08-31T14:42:12;0.60;;;0.20;;
47713;SDS011;33475;46.614;13.888;2023-08-31T14:44:40;0.45;;;0.43;;
47713;SDS011;33475;46.614;13.888;2023-08-31T14:47:06;2.17;;;0.65;;